Time;durP1;ratioP1;P1;durP2;ratioP2;P2;SDS_P1;SDS_P2;PMS_P1;PMS_P2;Temp;Humidity;BMP_temperature;BMP_pressure;BME280_temperature;BME280_humidity;BME280_pressure;Samples;Min_cycle;Max_cycle;Signal;HPM_P1;HPM_P2
2024/01/29 00:02:08;;;;;;;6.30;4.23;;;9.00;99.90;;;;;;5100655;28;20540;-85
2024/01/29 00:04:35;;;;;;;7.47;4.27;;;9.10;99.90;;;;;;5101274;28;20183;-88
2024/01/29 00:07:01;;;;;;;5.53;4.47;;;9.20;99.90;;;;;;5099439;28;20174;-87
2024/01/29 00:09:26;;;;;;;4.97;3.83;;;9.00;99.90;;;;;;5100127;28;20171;-89
2024/01/29 00:11:52;;;;;;;6.30;3.97;;;9.10;99.90;;;;;;5098680;28;20179;-89
2024/01/29 00:14:21;;;;;;;7.00;4.63;;;9.10;99.90;;;;;;5103775;28;20528;-90
2024/01/29 00:16:47;;;;;;;5.37;4.13;;;9.10;99.90;;;;;;5107978;28;20182;-89
2024/01/29 00:19:13;;;;;;;5.50;4.00;;;9.20;99.90;;;;;;5107058;28;20199;-88
2024/01/29 00:21:39;;;;;;;6.73;4.27;;;9.20;99.90;;;;;;5109348;28;20210;-89
2024/01/29 00:24:05;;;;;;;5.33;3.80;;;9.40;99.90;;;;;;5100473;28;20207;-89
2024/01/29 00:26:31;;;;;;;5.27;3.93;;;9.30;99.90;;;;;;5099557;28;20174;-87
2024/01/29 00:28:56;;;;;;;4.73;4.20;;;9.30;99.90;;;;;;5098894;28;20167;-90
2024/01/29 00:31:23;;;;;;;5.87;4.07;;;9.50;99.90;;;;;;5116981;28;20201;-89
2024/01/29 00:33:51;;;;;;;5.23;3.93;;;9.40;99.90;;;;;;5102818;28;20179;-86
2024/01/29 00:36:16;;;;;;;6.40;4.30;;;9.50;99.90;;;;;;5099821;28;20175;-88
2024/01/29 00:38:42;;;;;;;5.50;4.10;;;9.30;99.90;;;;;;5097679;28;20204;-87
2024/01/29 00:41:08;;;;;;;6.17;4.27;;;9.20;99.90;;;;;;5097892;28;20183;-86
2024/01/29 00:43:34;;;;;;;5.93;4.17;;;9.10;99.90;;;;;;5097827;28;20178;-88
2024/01/29 00:45:59;;;;;;;6.37;4.50;;;9.10;99.90;;;;;;5097614;28;20179;-89
2024/01/29 00:48:28;;;;;;;6.43;4.50;;;9.20;99.90;;;;;;5098223;28;20167;-89
2024/01/29 00:50:55;;;;;;;4.77;3.93;;;9.10;99.90;;;;;;5098314;28;20174;-90
2024/01/29 00:53:22;;;;;;;5.40;3.83;;;9.20;99.90;;;;;;5098608;28;20214;-91
2024/01/29 00:55:48;;;;;;;5.63;4.40;;;9.60;99.90;;;;;;5098258;28;20194;-88
2024/01/29 00:58:14;;;;;;;6.83;4.60;;;9.20;99.90;;;;;;5097751;28;20269;-87
2024/01/29 01:00:44;;;;;;;5.90;4.10;;;9.20;99.90;;;;;;5115196;28;20210;-91
2024/01/29 01:03:10;;;;;;;5.93;4.00;;;9.00;99.90;;;;;;5098797;28;20223;-91
2024/01/29 01:05:36;;;;;;;6.80;4.30;;;9.10;99.90;;;;;;5097891;28;20273;-87
2024/01/29 01:08:04;;;;;;;7.17;4.30;;;8.90;99.90;;;;;;5097352;28;20174;-90
2024/01/29 01:10:33;;;;;;;8.33;3.93;;;8.80;99.90;;;;;;5098579;28;20619;-91
2024/01/29 01:13:16;;;;;;;4.80;3.63;;;8.80;99.90;;;;;;5097950;28;20189;-90
2024/01/29 01:15:41;;;;;;;6.37;4.07;;;8.80;99.90;;;;;;5099884;28;20175;-90
2024/01/29 01:18:07;;;;;;;5.87;4.03;;;8.90;99.90;;;;;;5116682;28;20174;-88
2024/01/29 01:20:35;;;;;;;4.50;3.73;;;8.80;99.90;;;;;;5098007;28;20216;-90
2024/01/29 01:23:01;;;;;;;4.57;3.60;;;8.80;99.90;;;;;;5117822;28;20250;-89
2024/01/29 01:25:29;;;;;;;5.30;3.60;;;8.80;99.90;;;;;;5102138;28;20215;-84
2024/01/29 01:27:54;;;;;;;5.03;3.77;;;8.90;99.90;;;;;;5100467;28;20266;-89
2024/01/29 01:30:21;;;;;;;4.60;3.87;;;9.20;99.90;;;;;;5098098;28;20221;-89
2024/01/29 01:32:50;;;;;;;5.40;4.47;;;9.10;99.90;;;;;;5097712;28;20179;-90
2024/01/29 01:35:18;;;;;;;4.50;3.77;;;9.20;99.90;;;;;;5097642;28;20209;-87
2024/01/29 01:37:44;;;;;;;5.67;3.87;;;9.10;99.90;;;;;;5096384;28;20208;-90
2024/01/29 01:40:10;;;;;;;5.07;3.60;;;9.20;99.90;;;;;;5097717;28;20229;-89
2024/01/29 01:42:39;;;;;;;5.27;4.37;;;9.10;99.90;;;;;;5097356;28;20203;-87
2024/01/29 01:45:05;;;;;;;5.33;3.73;;;9.20;99.90;;;;;;5097991;28;20181;-85
2024/01/29 01:47:31;;;;;;;5.27;3.87;;;9.40;99.90;;;;;;5097509;28;20655;-88
2024/01/29 01:49:57;;;;;;;6.00;3.80;;;9.40;99.90;;;;;;5097678;28;20200;-82
2024/01/29 01:52:24;;;;;;;5.87;3.90;;;9.20;99.90;;;;;;5101910;28;20186;-85
2024/01/29 01:54:49;;;;;;;5.47;3.77;;;9.10;99.90;;;;;;5098936;28;20167;-83
2024/01/29 01:57:16;;;;;;;6.20;4.23;;;9.00;99.90;;;;;;5097074;28;20232;-84
2024/01/29 01:59:41;;;;;;;4.73;3.93;;;9.00;99.90;;;;;;5096313;28;20211;-83
2024/01/29 02:02:08;;;;;;;5.00;3.60;;;9.00;99.90;;;;;;5108384;28;20188;-83
2024/01/29 02:04:33;;;;;;;6.23;3.73;;;9.10;99.90;;;;;;5108438;28;20171;-86
2024/01/29 02:07:02;;;;;;;5.57;4.20;;;9.20;99.90;;;;;;5097701;28;20169;-86
2024/01/29 02:09:28;;;;;;;4.97;3.30;;;9.00;99.90;;;;;;5095700;28;20170;-84
2024/01/29 02:11:54;;;;;;;5.07;3.70;;;9.20;99.90;;;;;;5114879;28;20654;-90
2024/01/29 02:14:19;;;;;;;6.17;3.80;;;9.50;99.90;;;;;;5096577;28;20263;-88
2024/01/29 02:16:45;;;;;;;6.30;3.60;;;9.60;99.90;;;;;;5120918;28;20169;-89
2024/01/29 02:19:15;;;;;;;5.23;3.50;;;9.70;99.90;;;;;;5096378;28;20205;-90
2024/01/29 02:21:43;;;;;;;5.53;3.87;;;9.70;99.90;;;;;;5096519;28;20210;-90
2024/01/29 02:24:09;;;;;;;5.63;3.70;;;9.70;99.90;;;;;;5095731;28;20167;-89
2024/01/29 02:26:35;;;;;;;5.03;3.87;;;9.90;99.90;;;;;;5095200;28;20178;-84
2024/01/29 02:29:02;;;;;;;4.67;3.77;;;9.80;99.90;;;;;;5096220;28;20171;-87
2024/01/29 02:31:27;;;;;;;5.90;3.73;;;9.70;99.90;;;;;;5099284;28;20178;-85
2024/01/29 02:33:53;;;;;;;6.83;4.47;;;9.90;99.90;;;;;;5104227;28;20175;-84
2024/01/29 02:36:19;;;;;;;6.00;3.70;;;10.00;99.90;;;;;;5105325;28;20162;-88
2024/01/29 02:38:44;;;;;;;5.33;3.73;;;9.90;99.90;;;;;;5116442;28;20163;-85
2024/01/29 02:41:11;;;;;;;5.73;3.77;;;10.00;99.90;;;;;;5095897;28;20186;-85
2024/01/29 02:43:37;;;;;;;4.80;3.50;;;10.00;99.90;;;;;;5095634;28;20165;-83
2024/01/29 02:46:03;;;;;;;4.87;3.80;;;9.90;99.90;;;;;;5095821;28;20170;-87
2024/01/29 02:48:28;;;;;;;5.53;3.70;;;9.90;99.90;;;;;;5095468;28;20183;-84
2024/01/29 02:50:54;;;;;;;6.10;4.07;;;10.00;99.90;;;;;;5114228;28;20259;-87
2024/01/29 02:53:20;;;;;;;5.47;3.80;;;9.70;99.90;;;;;;5094511;28;20168;-86
2024/01/29 02:55:45;;;;;;;4.67;3.93;;;9.90;99.90;;;;;;5095864;28;20219;-83
2024/01/29 02:58:11;;;;;;;5.50;4.00;;;9.90;99.90;;;;;;5113755;28;20242;-84
2024/01/29 03:00:37;;;;;;;5.27;3.80;;;9.80;99.90;;;;;;5095675;28;20270;-90
2024/01/29 03:03:03;;;;;;;5.90;3.90;;;9.90;99.90;;;;;;5113831;28;20159;-85
2024/01/29 03:05:28;;;;;;;7.07;4.60;;;9.90;99.90;;;;;;5095719;28;20655;-84
2024/01/29 03:07:54;;;;;;;6.63;4.23;;;9.90;99.90;;;;;;5095366;28;20195;-89
2024/01/29 03:10:20;;;;;;;5.93;4.30;;;9.80;99.90;;;;;;5095314;28;20171;-84
2024/01/29 03:12:46;;;;;;;5.90;3.77;;;9.70;99.90;;;;;;5095658;28;20632;-83
2024/01/29 03:15:12;;;;;;;6.90;4.10;;;9.60;99.90;;;;;;5093874;28;20226;-89
2024/01/29 03:17:38;;;;;;;5.43;4.20;;;9.60;99.90;;;;;;5094580;28;20266;-82
2024/01/29 03:20:04;;;;;;;4.50;3.60;;;9.70;99.90;;;;;;5095332;28;20351;-86
2024/01/29 03:22:29;;;;;;;6.07;3.63;;;9.80;99.90;;;;;;5095034;28;20632;-90
2024/01/29 03:24:55;;;;;;;6.20;3.70;;;9.80;99.90;;;;;;5113100;28;20172;-88
2024/01/29 03:27:21;;;;;;;6.30;3.97;;;9.80;99.90;;;;;;5096028;28;20174;-87
2024/01/29 03:29:46;;;;;;;5.27;3.93;;;10.00;99.90;;;;;;5095844;28;20201;-85
2024/01/29 03:32:12;;;;;;;5.47;4.20;;;10.10;99.90;;;;;;5095516;28;20178;-83
2024/01/29 03:34:42;;;;;;;6.70;4.00;;;10.00;99.90;;;;;;5095552;28;20178;-86
2024/01/29 03:37:09;;;;;;;4.60;3.93;;;10.00;99.90;;;;;;5095523;28;20177;-86
2024/01/29 03:39:38;;;;;;;7.23;3.93;;;9.80;99.90;;;;;;5096063;28;20202;-88
2024/01/29 03:42:04;;;;;;;5.43;4.20;;;9.90;99.90;;;;;;5103333;28;20216;-81
2024/01/29 03:44:29;;;;;;;6.67;4.57;;;9.70;99.90;;;;;;5107991;28;20171;-82
2024/01/29 03:46:55;;;;;;;5.90;4.23;;;9.80;99.90;;;;;;5111839;28;20163;-83
2024/01/29 03:49:20;;;;;;;5.37;4.43;;;9.80;99.90;;;;;;5098933;28;20193;-86
2024/01/29 03:51:47;;;;;;;4.77;3.90;;;9.70;99.90;;;;;;5094688;28;20178;-87
2024/01/29 03:54:13;;;;;;;5.73;4.33;;;9.80;99.90;;;;;;5095256;28;20166;-89
2024/01/29 03:56:38;;;;;;;5.83;3.90;;;9.70;99.90;;;;;;5094571;28;20679;-89
2024/01/29 03:59:04;;;;;;;5.60;4.27;;;9.70;99.90;;;;;;5095357;28;20228;-89
2024/01/29 04:01:30;;;;;;;5.10;4.40;;;9.60;99.90;;;;;;5096199;28;20183;-85
2024/01/29 04:03:56;;;;;;;6.90;4.20;;;9.70;99.90;;;;;;5094588;28;20824;-87
2024/01/29 04:06:22;;;;;;;5.20;4.30;;;9.60;99.90;;;;;;5094853;28;20171;-83
2024/01/29 04:08:47;;;;;;;6.00;4.40;;;9.40;99.90;;;;;;5094641;28;20262;-83
2024/01/29 04:11:14;;;;;;;5.30;4.37;;;9.50;99.90;;;;;;5115416;28;20250;-85
2024/01/29 04:13:39;;;;;;;6.83;4.60;;;9.30;99.90;;;;;;5102192;28;20183;-84
2024/01/29 04:16:08;;;;;;;6.50;4.23;;;9.20;99.90;;;;;;5094773;28;20217;-89
2024/01/29 04:18:34;;;;;;;5.30;4.30;;;9.10;99.90;;;;;;5095223;28;20190;-83
2024/01/29 04:21:00;;;;;;;5.07;4.10;;;9.20;99.90;;;;;;5095012;28;20508;-86
2024/01/29 04:23:25;;;;;;;6.33;4.50;;;9.00;99.90;;;;;;5099371;28;20171;-83
2024/01/29 04:25:51;;;;;;;6.97;4.53;;;9.00;99.90;;;;;;5098647;28;20171;-84
2024/01/29 04:28:16;;;;;;;5.70;4.53;;;9.10;99.90;;;;;;5121815;28;20166;-82
2024/01/29 04:30:42;;;;;;;8.00;4.13;;;9.00;99.90;;;;;;5117297;28;20173;-83
2024/01/29 04:33:08;;;;;;;5.53;4.23;;;9.00;99.90;;;;;;5104158;28;20182;-82
2024/01/29 04:35:35;;;;;;;7.20;4.87;;;9.00;99.90;;;;;;5097832;28;20175;-83
2024/01/29 04:38:00;;;;;;;5.30;4.40;;;9.00;99.90;;;;;;5097874;28;20227;-90
2024/01/29 04:40:26;;;;;;;6.03;5.00;;;9.20;99.90;;;;;;5097846;28;20297;-84
2024/01/29 04:42:52;;;;;;;7.23;4.47;;;9.20;99.90;;;;;;5098568;28;20171;-87
2024/01/29 04:45:17;;;;;;;6.63;4.67;;;9.40;99.90;;;;;;5115912;28;20740;-88
2024/01/29 04:47:43;;;;;;;6.83;4.53;;;9.30;99.90;;;;;;5097715;28;20634;-82
2024/01/29 04:50:09;;;;;;;5.13;4.17;;;9.20;99.90;;;;;;5097714;28;20275;-90
2024/01/29 04:52:34;;;;;;;7.77;4.60;;;9.20;99.90;;;;;;5115747;28;20634;-89
2024/01/29 04:55:00;;;;;;;9.33;5.10;;;9.10;99.90;;;;;;5097996;28;20619;-83
2024/01/29 04:57:26;;;;;;;5.40;4.17;;;9.30;99.90;;;;;;5096421;28;20175;-82
2024/01/29 04:59:52;;;;;;;5.37;4.00;;;9.00;99.90;;;;;;5115659;28;20317;-85
2024/01/29 05:02:17;;;;;;;6.63;4.27;;;9.20;99.90;;;;;;5097541;28;20175;-86
2024/01/29 05:04:43;;;;;;;6.43;4.40;;;9.10;99.90;;;;;;5097815;28;20340;-86
2024/01/29 05:07:09;;;;;;;9.13;4.60;;;8.80;99.90;;;;;;5102020;28;20631;-84
2024/01/29 05:09:35;;;;;;;6.17;4.50;;;8.80;99.90;;;;;;5122890;28;20271;-84
2024/01/29 05:12:01;;;;;;;5.43;4.40;;;9.10;99.90;;;;;;5105969;28;20545;-89
2024/01/29 05:14:28;;;;;;;5.57;4.20;;;8.80;99.90;;;;;;5097637;28;20216;-89
2024/01/29 05:16:53;;;;;;;7.77;4.40;;;8.90;99.90;;;;;;5098402;28;20181;-87
2024/01/29 05:19:19;;;;;;;8.33;4.80;;;8.90;99.90;;;;;;5099098;28;20199;-87
2024/01/29 05:21:47;;;;;;;5.40;4.50;;;8.80;99.90;;;;;;5105025;28;20216;-86
2024/01/29 05:24:13;;;;;;;6.27;5.07;;;8.70;99.90;;;;;;5104239;28;20171;-83
2024/01/29 05:26:41;;;;;;;6.03;4.33;;;8.90;99.90;;;;;;5097600;28;20208;-88
2024/01/29 05:29:07;;;;;;;6.57;4.90;;;9.00;99.90;;;;;;5097873;28;20177;-84
2024/01/29 05:31:32;;;;;;;6.33;4.80;;;9.10;99.90;;;;;;5115840;28;20254;-89
2024/01/29 05:33:58;;;;;;;6.73;4.57;;;8.90;99.90;;;;;;5097853;28;20192;-82
2024/01/29 05:36:24;;;;;;;6.73;4.67;;;8.80;99.90;;;;;;5118296;28;20208;-85
2024/01/29 05:38:50;;;;;;;5.27;4.40;;;8.70;99.90;;;;;;5117686;28;20172;-86
2024/01/29 05:41:16;;;;;;;6.20;4.70;;;8.90;99.90;;;;;;5097185;28;20643;-83
2024/01/29 05:43:43;;;;;;;5.80;4.87;;;9.10;99.90;;;;;;5097007;28;20173;-85
2024/01/29 05:46:08;;;;;;;7.27;5.13;;;8.90;99.90;;;;;;5115200;28;20174;-85
2024/01/29 05:48:34;;;;;;;8.80;5.00;;;8.60;99.90;;;;;;5097173;28;20634;-88
2024/01/29 05:51:00;;;;;;;6.97;5.00;;;8.60;99.90;;;;;;5096434;28;20220;-90
2024/01/29 05:53:25;;;;;;;7.70;4.97;;;8.40;99.90;;;;;;5097282;28;20178;-83
2024/01/29 05:55:51;;;;;;;6.60;5.10;;;8.30;99.90;;;;;;5096485;28;20728;-86
2024/01/29 05:58:17;;;;;;;8.13;5.03;;;8.20;99.90;;;;;;5096678;28;20638;-83
2024/01/29 06:00:42;;;;;;;5.70;5.10;;;8.40;99.90;;;;;;5096026;28;20227;-89
2024/01/29 06:03:08;;;;;;;8.90;5.87;;;8.40;99.90;;;;;;5095343;28;20178;-86
2024/01/29 06:05:34;;;;;;;8.83;5.33;;;8.50;99.90;;;;;;5118594;28;20662;-84
2024/01/29 06:08:03;;;;;;;8.00;5.17;;;8.30;99.90;;;;;;5100848;28;20167;-84
2024/01/29 06:10:28;;;;;;;7.63;5.47;;;8.20;99.90;;;;;;5096265;28;20642;-85
2024/01/29 06:12:54;;;;;;;6.27;4.93;;;8.00;99.90;;;;;;5096134;28;20198;-91
2024/01/29 06:15:19;;;;;;;6.73;5.83;;;8.10;99.90;;;;;;5095643;28;20205;-85
2024/01/29 06:17:45;;;;;;;7.63;5.97;;;8.10;99.90;;;;;;5096423;28;20206;-86
2024/01/29 06:20:12;;;;;;;7.63;5.63;;;8.10;99.90;;;;;;5096301;28;20274;-84
2024/01/29 06:22:38;;;;;;;7.03;5.43;;;8.10;99.90;;;;;;5095175;28;20192;-87
2024/01/29 06:25:05;;;;;;;7.50;5.53;;;8.00;99.90;;;;;;5095772;28;20202;-91
2024/01/29 06:27:30;;;;;;;6.30;5.23;;;8.10;99.90;;;;;;5095972;28;20664;-85
2024/01/29 06:29:56;;;;;;;8.27;4.90;;;8.20;99.90;;;;;;5096372;28;20175;-91
2024/01/29 06:32:23;;;;;;;6.77;5.53;;;8.10;99.90;;;;;;5096052;28;20163;-88
2024/01/29 06:34:56;;;;;;;6.47;4.90;;;8.00;99.90;;;;;;5096141;28;20177;-89
2024/01/29 06:37:22;;;;;;;8.87;5.63;;;8.00;99.90;;;;;;5095618;28;20167;-84
2024/01/29 06:39:48;;;;;;;7.40;5.37;;;8.10;99.90;;;;;;5095869;28;20678;-84
2024/01/29 06:42:13;;;;;;;7.60;4.97;;;8.10;99.90;;;;;;5095655;28;20283;-85
2024/01/29 06:44:41;;;;;;;9.50;5.50;;;8.00;99.90;;;;;;5096081;28;20205;-84
2024/01/29 06:47:06;;;;;;;7.67;5.60;;;8.00;99.90;;;;;;5113479;28;20642;-85
2024/01/29 06:49:32;;;;;;;6.83;5.67;;;8.00;99.90;;;;;;5097019;28;20330;-85
2024/01/29 06:51:58;;;;;;;7.03;4.90;;;8.20;99.90;;;;;;5096072;28;20956;-87
2024/01/29 06:54:24;;;;;;;7.63;5.13;;;8.10;99.90;;;;;;5095143;28;20619;-91
2024/01/29 06:56:51;;;;;;;7.40;5.50;;;8.10;99.90;;;;;;5096784;28;20530;-87
2024/01/29 06:59:16;;;;;;;8.57;5.47;;;8.00;99.90;;;;;;5100336;28;20230;-83
2024/01/29 07:01:42;;;;;;;9.67;5.80;;;8.00;99.90;;;;;;5098228;28;20221;-86
2024/01/29 07:04:09;;;;;;;8.83;5.60;;;8.00;99.90;;;;;;5095707;28;20178;-84
2024/01/29 07:06:35;;;;;;;7.97;5.20;;;8.00;99.90;;;;;;5096033;28;20174;-87
2024/01/29 07:09:01;;;;;;;10.03;6.20;;;7.90;99.90;;;;;;5095480;28;20163;-88
2024/01/29 07:11:27;;;;;;;6.87;5.40;;;7.90;99.90;;;;;;5095203;28;20179;-85
2024/01/29 07:13:53;;;;;;;8.10;5.30;;;8.00;99.90;;;;;;5094031;28;20169;-83
2024/01/29 07:16:19;;;;;;;6.40;4.93;;;7.90;99.90;;;;;;5093861;28;20280;-84
2024/01/29 07:18:44;;;;;;;10.50;5.67;;;7.90;99.90;;;;;;5094698;28;20630;-84
2024/01/29 07:21:10;;;;;;;6.87;5.20;;;7.90;99.90;;;;;;5095194;28;20183;-86
2024/01/29 07:23:36;;;;;;;9.60;5.63;;;7.90;99.90;;;;;;5113351;28;20191;-88
2024/01/29 07:26:02;;;;;;;10.87;5.97;;;7.90;99.90;;;;;;5112563;28;20175;-81
2024/01/29 07:28:27;;;;;;;7.97;5.53;;;7.90;99.90;;;;;;5093808;28;20196;-84
2024/01/29 07:30:53;;;;;;;7.40;5.70;;;8.00;99.90;;;;;;5093969;28;20677;-85
2024/01/29 07:33:20;;;;;;;7.77;5.70;;;8.10;99.90;;;;;;5093920;28;20171;-91
2024/01/29 07:35:46;;;;;;;11.50;6.27;;;8.10;99.90;;;;;;5093955;28;20167;-87
2024/01/29 07:38:11;;;;;;;8.13;5.97;;;8.10;99.90;;;;;;5095087;28;20183;-84
2024/01/29 07:40:37;;;;;;;7.43;5.63;;;8.30;99.90;;;;;;5094729;28;20689;-84
2024/01/29 07:43:03;;;;;;;7.43;5.30;;;8.10;99.90;;;;;;5094478;28;20171;-87
2024/01/29 07:45:29;;;;;;;7.00;5.33;;;8.00;99.90;;;;;;5095035;28;20167;-83
2024/01/29 07:47:55;;;;;;;8.43;5.77;;;8.10;99.90;;;;;;5093227;28;20174;-84
2024/01/29 07:50:21;;;;;;;8.20;5.93;;;8.20;99.90;;;;;;5092682;28;20545;-85
2024/01/29 07:52:47;;;;;;;7.17;5.80;;;8.10;99.90;;;;;;5094034;28;20171;-84
2024/01/29 07:55:13;;;;;;;7.43;5.97;;;8.10;99.90;;;;;;5093735;28;20175;-86
2024/01/29 07:57:39;;;;;;;10.80;6.23;;;8.10;99.90;;;;;;5094915;28;20199;-85
2024/01/29 08:00:05;;;;;;;7.73;5.87;;;8.10;99.90;;;;;;5098294;28;20324;-86
2024/01/29 08:02:31;;;;;;;8.60;6.00;;;8.10;99.90;;;;;;5099320;28;20167;-89
2024/01/29 08:04:57;;;;;;;9.77;6.17;;;8.00;99.90;;;;;;5118049;28;20642;-84
2024/01/29 08:07:23;;;;;;;11.37;5.57;;;8.10;99.90;;;;;;5099269;28;20278;-84
2024/01/29 08:09:49;;;;;;;8.67;6.23;;;8.20;99.90;;;;;;5098909;28;20171;-84
2024/01/29 08:12:15;;;;;;;9.57;6.33;;;8.10;99.90;;;;;;5098357;28;20166;-85
2024/01/29 08:14:41;;;;;;;10.43;6.07;;;8.30;99.90;;;;;;5095836;28;20163;-83
2024/01/29 08:17:06;;;;;;;12.23;6.27;;;8.20;99.90;;;;;;5079211;28;20542;-83
2024/01/29 08:19:32;;;;;;;11.63;6.50;;;8.30;99.90;;;;;;5083359;28;20619;-82
2024/01/29 08:21:58;;;;;;;7.43;6.27;;;8.50;99.90;;;;;;5114401;28;20193;-82
2024/01/29 08:24:24;;;;;;;13.10;6.70;;;8.70;99.90;;;;;;5096924;28;20182;-84
2024/01/29 08:26:50;;;;;;;8.67;6.40;;;8.70;99.90;;;;;;5096167;28;20238;-82
2024/01/29 08:29:15;;;;;;;9.70;6.73;;;8.70;99.90;;;;;;5096775;28;20643;-83
2024/01/29 08:31:41;;;;;;;11.30;6.83;;;9.00;99.90;;;;;;5096523;28;20288;-83
2024/01/29 08:34:06;;;;;;;8.47;6.57;;;9.10;99.90;;;;;;5096782;28;20186;-82
2024/01/29 08:36:33;;;;;;;11.77;6.80;;;9.00;99.90;;;;;;5096979;28;20179;-83
2024/01/29 08:38:59;;;;;;;10.07;6.87;;;9.10;99.90;;;;;;5096444;28;20213;-82
2024/01/29 08:41:24;;;;;;;13.27;7.40;;;9.20;99.90;;;;;;5096477;28;20206;-82
2024/01/29 08:43:50;;;;;;;11.00;7.23;;;9.00;99.90;;;;;;5096507;28;20174;-81
2024/01/29 08:46:16;;;;;;;10.70;7.53;;;9.10;99.90;;;;;;5096617;28;20646;-83
2024/01/29 08:48:42;;;;;;;12.37;6.93;;;9.10;99.90;;;;;;5096904;28;20590;-81
2024/01/29 08:51:08;;;;;;;10.37;7.37;;;9.10;99.90;;;;;;5115437;28;20167;-83
2024/01/29 08:53:34;;;;;;;13.67;7.47;;;9.20;99.90;;;;;;5096943;28;20239;-83
2024/01/29 08:56:00;;;;;;;10.07;7.20;;;9.30;99.90;;;;;;5096720;28;20541;-83
2024/01/29 08:58:25;;;;;;;10.43;7.27;;;9.10;99.90;;;;;;5096950;28;20269;-85
2024/01/29 09:00:53;;;;;;;10.97;7.50;;;9.10;99.90;;;;;;5096296;28;20667;-87
2024/01/29 09:03:20;;;;;;;11.83;8.87;;;9.20;99.90;;;;;;5096416;28;20167;-82
2024/01/29 09:05:47;;;;;;;15.97;8.47;;;9.50;99.90;;;;;;5096536;28;20789;-82
2024/01/29 09:08:14;;;;;;;13.37;9.00;;;9.30;99.90;;;;;;5096649;27;20171;-82
2024/01/29 09:10:40;;;;;;;13.63;8.97;;;9.30;99.90;;;;;;5095756;28;20203;-83
2024/01/29 09:13:06;;;;;;;16.37;9.03;;;9.50;99.90;;;;;;5114613;28;20193;-85
2024/01/29 09:15:32;;;;;;;12.07;8.77;;;9.50;99.90;;;;;;5096757;28;20622;-82
2024/01/29 09:17:57;;;;;;;14.43;9.07;;;9.60;99.90;;;;;;5096467;28;20174;-81
2024/01/29 09:20:23;;;;;;;15.47;9.50;;;9.70;99.90;;;;;;5096215;28;20250;-83
2024/01/29 09:22:49;;;;;;;13.67;8.97;;;9.80;99.90;;;;;;5095989;28;20206;-82
2024/01/29 09:25:14;;;;;;;13.37;8.70;;;9.90;99.90;;;;;;5115966;28;20624;-82
2024/01/29 09:27:40;;;;;;;11.97;8.27;;;9.90;99.90;;;;;;5114215;28;20174;-83
2024/01/29 09:30:06;;;;;;;12.87;8.20;;;9.80;99.90;;;;;;5095723;28;20340;-83
2024/01/29 09:32:32;;;;;;;8.93;7.20;;;10.00;99.90;;;;;;5096337;28;20219;-81
2024/01/29 09:34:58;;;;;;;11.27;7.67;;;10.10;99.90;;;;;;5114492;28;20175;-84
2024/01/29 09:37:23;;;;;;;12.40;8.47;;;10.10;99.90;;;;;;5095789;28;20630;-82
2024/01/29 09:39:50;;;;;;;16.20;11.50;;;10.10;99.90;;;;;;5087270;28;20819;-81
2024/01/29 09:42:24;;;;;;;12.13;9.23;;;10.40;99.90;;;;;;5075597;28;20258;-82
2024/01/29 09:44:53;;;;;;;9.67;8.57;;;10.50;99.90;;;;;;5075790;28;20171;-80
2024/01/29 09:47:20;;;;;;;13.33;8.47;;;10.60;99.90;;;;;;5075859;28;20537;-90
2024/01/29 09:49:46;;;;;;;11.60;8.87;;;10.70;99.90;;;;;;5075687;28;20179;-82
2024/01/29 09:52:13;;;;;;;11.03;8.67;;;10.80;99.90;;;;;;5090726;28;20175;-86
2024/01/29 09:54:40;;;;;;;12.97;8.90;;;11.00;99.90;;;;;;5090130;28;20649;-80
2024/01/29 09:57:09;;;;;;;12.90;8.57;;;11.20;99.90;;;;;;5105742;28;20167;-82
2024/01/29 09:59:36;;;;;;;10.70;7.50;;;11.10;99.90;;;;;;5095601;28;20208;-82
2024/01/29 10:02:03;;;;;;;10.70;7.50;;;11.10;99.90;;;;;;5113469;28;20167;-89
2024/01/29 10:04:29;;;;;;;12.10;8.60;;;11.20;99.90;;;;;;5112907;28;20166;-83
2024/01/29 10:06:54;;;;;;;15.07;8.77;;;11.40;99.90;;;;;;5094732;28;20171;-85
2024/01/29 10:09:20;;;;;;;12.77;7.93;;;11.40;99.90;;;;;;5096763;28;20646;-83
2024/01/29 10:11:46;;;;;;;13.97;8.10;;;11.50;99.90;;;;;;5094886;28;20167;-84
2024/01/29 10:14:12;;;;;;;12.20;9.07;;;11.50;99.90;;;;;;5095346;28;20180;-83
2024/01/29 10:16:37;;;;;;;12.50;8.37;;;11.70;99.90;;;;;;5095523;28;20468;-84
2024/01/29 10:19:03;;;;;;;15.27;8.90;;;11.60;99.90;;;;;;5113157;28;20263;-82
2024/01/29 10:21:38;;;;;;;12.33;8.17;;;11.50;99.90;;;;;;5094199;28;20612;-85
2024/01/29 10:24:04;;;;;;;11.00;8.80;;;11.60;99.90;;;;;;5095552;28;20200;-83
2024/01/29 10:26:29;;;;;;;11.70;8.80;;;11.60;99.90;;;;;;5090384;28;20172;-84
2024/01/29 10:29:07;;;;;;;11.23;8.73;;;11.70;99.90;;;;;;5096237;28;20201;-81
2024/01/29 10:31:33;;;;;;;13.77;8.97;;;11.60;99.90;;;;;;5098787;28;20177;-83
2024/01/29 10:33:59;;;;;;;11.20;8.37;;;11.60;99.90;;;;;;5079856;28;20163;-83
2024/01/29 10:36:25;;;;;;;13.93;9.43;;;11.70;99.90;;;;;;5097247;28;20176;-83
2024/01/29 10:38:52;;;;;;;13.90;9.57;;;11.60;99.90;;;;;;5074921;28;20661;-83
2024/01/29 10:41:21;;;;;;;13.47;9.43;;;11.60;99.90;;;;;;5081023;28;20637;-85
2024/01/29 10:43:48;;;;;;;11.63;9.17;;;11.50;99.90;;;;;;5082464;28;20207;-84
2024/01/29 10:46:19;;;;;;;17.47;9.57;;;11.70;99.90;;;;;;5074619;28;20175;-82
2024/01/29 10:48:46;;;;;;;10.60;8.70;;;11.90;99.90;;;;;;5092374;28;20634;-89
2024/01/29 10:51:15;;;;;;;14.57;10.07;;;12.10;99.90;;;;;;5072851;28;20163;-83
2024/01/29 10:53:44;;;;;;;11.50;8.97;;;12.00;99.90;;;;;;5074358;28;20226;-82
2024/01/29 10:56:11;;;;;;;12.90;9.67;;;12.00;99.90;;;;;;5074207;28;20173;-82
2024/01/29 10:58:38;;;;;;;12.97;10.00;;;11.90;99.90;;;;;;5074476;28;20225;-88
2024/01/29 11:01:10;;;;;;;14.33;9.63;;;12.10;99.90;;;;;;5075029;28;20209;-91
2024/01/29 11:03:37;;;;;;;15.47;9.97;;;12.00;99.90;;;;;;5074652;28;20173;-81
2024/01/29 11:06:27;;;;;;;15.47;10.10;;;12.10;99.90;;;;;;5092001;28;20179;-83
2024/01/29 11:09:09;;;;;;;12.93;9.63;;;12.00;99.90;;;;;;5075201;28;20179;-84
2024/01/29 11:11:37;;;;;;;15.73;9.17;;;12.00;99.90;;;;;;5093483;28;20182;-83
2024/01/29 11:14:03;;;;;;;13.70;9.43;;;11.90;99.90;;;;;;5094620;28;20614;-86
2024/01/29 11:16:29;;;;;;;13.73;9.53;;;12.20;99.90;;;;;;5094425;28;20266;-89
2024/01/29 11:18:55;;;;;;;14.40;9.43;;;12.30;99.90;;;;;;5093453;28;20171;-84
2024/01/29 11:21:24;;;;;;;12.43;9.30;;;12.30;99.90;;;;;;5094466;28;20268;-83
2024/01/29 11:23:54;;;;;;;11.50;9.03;;;12.40;99.90;;;;;;5094197;28;20576;-85
2024/01/29 11:26:24;;;;;;;10.87;8.60;;;12.40;99.90;;;;;;5114684;28;20269;-84
2024/01/29 11:29:15;;;;;;;12.80;9.17;;;12.40;99.90;;;;;;5077782;28;20224;-84
2024/01/29 11:31:42;;;;;;;11.90;8.63;;;12.60;99.90;;;;;;5094740;28;20606;-88
2024/01/29 11:34:08;;;;;;;12.83;9.03;;;12.50;99.90;;;;;;5116763;28;20621;-82
2024/01/29 11:36:38;;;;;;;13.33;9.33;;;12.60;99.90;;;;;;5098499;28;20695;-87
2024/01/29 11:39:14;;;;;;;11.87;9.43;;;12.60;99.90;;;;;;5098092;28;20173;-87
2024/01/29 11:41:48;;;;;;;10.80;8.43;;;12.70;99.90;;;;;;5097765;28;20196;-82
2024/01/29 11:44:18;;;;;;;11.33;8.53;;;12.60;99.90;;;;;;5116012;28;20165;-83
2024/01/29 11:46:44;;;;;;;12.10;8.10;;;12.70;99.90;;;;;;5098363;28;20185;-83
2024/01/29 11:49:10;;;;;;;11.20;8.60;;;12.70;99.90;;;;;;5116162;28;20174;-82
2024/01/29 11:51:37;;;;;;;11.37;8.63;;;12.70;99.90;;;;;;5095711;28;20185;-82
2024/01/29 11:54:04;;;;;;;11.23;8.27;;;12.90;99.90;;;;;;5114376;28;20249;-84
2024/01/29 11:56:30;;;;;;;10.77;8.93;;;13.00;99.90;;;;;;5098030;28;20214;-84
2024/01/29 11:59:02;;;;;;;11.50;8.80;;;13.00;99.90;;;;;;5097598;28;20207;-83
2024/01/29 12:01:31;;;;;;;10.83;7.90;;;13.10;99.90;;;;;;5098433;28;20211;-93
2024/01/29 12:03:58;;;;;;;10.13;7.77;;;13.30;99.90;;;;;;5099273;28;20182;-85
2024/01/29 12:06:24;;;;;;;10.93;8.20;;;13.20;99.90;;;;;;5098099;28;20206;-82
2024/01/29 12:08:56;;;;;;;11.30;7.73;;;13.10;99.90;;;;;;5097303;28;20171;-84
2024/01/29 12:11:24;;;;;;;10.20;7.73;;;13.20;99.90;;;;;;5097532;28;20635;-90
2024/01/29 12:13:53;;;;;;;10.00;7.73;;;13.30;99.90;;;;;;5097567;28;20232;-83
2024/01/29 12:16:19;;;;;;;10.70;8.00;;;13.30;99.90;;;;;;5097372;28;20182;-85
2024/01/29 12:18:46;;;;;;;13.50;7.47;;;13.40;99.90;;;;;;5099894;28;20623;-85
2024/01/29 12:21:12;;;;;;;10.27;8.27;;;13.50;99.90;;;;;;5095719;28;20300;-84
2024/01/29 12:23:38;;;;;;;10.17;7.80;;;13.60;99.90;;;;;;5087945;28;20274;-87
2024/01/29 12:26:04;;;;;;;10.23;7.87;;;13.70;99.90;;;;;;5097667;28;20186;-85
2024/01/29 12:28:30;;;;;;;11.47;7.37;;;13.60;99.90;;;;;;5096590;28;20186;-91
2024/01/29 12:30:58;;;;;;;11.03;7.27;;;13.60;99.90;;;;;;5097237;28;20190;-85
2024/01/29 12:33:29;;;;;;;10.67;7.30;;;13.60;99.90;;;;;;5096962;28;20171;-85
2024/01/29 12:35:55;;;;;;;9.13;7.00;;;13.60;99.90;;;;;;5098292;28;20298;-86
2024/01/29 12:38:25;;;;;;;9.33;7.57;;;13.60;99.90;;;;;;5098020;28;20174;-86
2024/01/29 12:40:57;;;;;;;11.07;7.90;;;13.70;99.90;;;;;;5097712;28;20293;-89
2024/01/29 12:43:27;;;;;;;11.67;7.80;;;13.70;99.90;;;;;;5097093;28;20202;-89
2024/01/29 12:46:11;;;;;;;10.37;6.90;;;13.80;99.90;;;;;;5097721;28;20182;-87
2024/01/29 12:48:37;;;;;;;11.47;7.87;;;13.70;99.90;;;;;;5097297;28;20218;-86